createdAt,value
2022-11-30T00:04:52.857Z,22.58
2022-11-30T00:10:56.230Z,27.75
2022-11-30T00:17:01.298Z,27.77
2022-11-30T00:23:04.718Z,25.88
2022-11-30T00:29:08.042Z,21.10
2022-11-30T00:35:13.370Z,26.40
2022-11-30T00:41:17.037Z,24.88
2022-11-30T00:47:20.429Z,25.15
2022-11-30T00:53:25.486Z,29.08
2022-11-30T00:59:28.970Z,24.45
2022-11-30T01:05:34.222Z,24.98
2022-11-30T01:11:39.074Z,22.70
2022-11-30T01:17:42.427Z,24.55
2022-11-30T01:23:47.307Z,26.73
2022-11-30T01:29:52.254Z,25.60
2022-11-30T01:36:02.339Z,30.95
2022-11-30T01:42:05.986Z,29.85
2022-11-30T01:48:10.919Z,27.98
2022-11-30T01:54:15.289Z,37.20
2022-11-30T02:00:19.230Z,29.92
2022-11-30T02:06:24.367Z,30.08
2022-11-30T02:12:31.856Z,22.95
2022-11-30T02:18:40.678Z,24.90
2022-11-30T02:24:50.868Z,23.85
2022-11-30T02:30:55.901Z,21.77
2022-11-30T02:37:00.306Z,21.33
2022-11-30T02:43:04.982Z,24.73
2022-11-30T02:49:13.801Z,26.77
2022-11-30T02:55:18.340Z,22.65
2022-11-30T03:01:21.908Z,23.85
2022-11-30T03:07:26.925Z,26.45
2022-11-30T03:13:30.429Z,21.50
2022-11-30T03:19:33.803Z,22.25
2022-11-30T03:25:38.491Z,24.90
2022-11-30T03:31:41.896Z,26.13
2022-11-30T03:37:45.263Z,34.40
2022-11-30T03:43:50.696Z,29.63
2022-11-30T03:49:54.109Z,23.65
2022-11-30T03:55:59.070Z,26.77
2022-11-30T04:02:03.769Z,30.15
2022-11-30T04:08:07.618Z,29.75
2022-11-30T04:14:11.265Z,27.42
2022-11-30T04:20:16.693Z,28.02
2022-11-30T04:26:20.065Z,25.33
2022-11-30T04:32:23.748Z,24.05
2022-11-30T04:38:29.716Z,27.60
2022-11-30T04:44:33.078Z,25.30
2022-11-30T04:50:36.838Z,30.23
2022-11-30T04:56:41.591Z,32.03
2022-11-30T05:02:50.676Z,39.45
2022-11-30T05:08:56.152Z,35.25
2022-11-30T05:15:01.062Z,36.30
2022-11-30T05:21:04.508Z,32.65
2022-11-30T05:27:14.313Z,30.98
2022-11-30T05:33:22.378Z,30.40
2022-11-30T05:39:25.751Z,30.70
2022-11-30T05:45:29.118Z,29.30
2022-11-30T05:51:33.904Z,30.58
2022-11-30T05:57:37.798Z,25.73
2022-11-30T06:03:41.209Z,30.38
2022-11-30T06:09:46.068Z,35.88
2022-11-30T06:15:49.455Z,77.68
2022-11-30T06:21:52.795Z,73.07
2022-11-30T06:27:57.565Z,77.97
2022-11-30T06:34:01.104Z,71.40
2022-11-30T06:40:06.955Z,71.28
2022-11-30T06:46:12.449Z,82.05
2022-11-30T06:52:15.827Z,75.57
2022-11-30T06:58:19.188Z,73.85
2022-11-30T07:04:24.106Z,71.20
2022-11-30T07:10:28.100Z,80.82
2022-11-30T07:16:31.984Z,81.00
2022-11-30T07:22:36.710Z,73.07
2022-11-30T07:28:40.788Z,75.40
2022-11-30T07:34:44.253Z,71.97
2022-11-30T07:40:49.107Z,65.32
2022-11-30T07:46:52.583Z,51.70
2022-11-30T07:52:56.273Z,34.05
2022-11-30T07:59:01.765Z,36.42
2022-11-30T08:05:05.262Z,50.28
2022-11-30T08:11:09.604Z,31.20
2022-11-30T08:17:14.491Z,30.92
2022-11-30T08:23:18.295Z,29.25
2022-11-30T08:29:21.807Z,28.30
2022-11-30T08:35:26.822Z,23.73
2022-11-30T08:41:30.189Z,33.08
2022-11-30T08:47:33.768Z,25.10
2022-11-30T08:53:38.832Z,29.02
2022-11-30T08:59:42.412Z,30.15
2022-11-30T09:05:45.787Z,32.15
2022-11-30T09:11:50.728Z,38.10
2022-11-30T09:17:54.099Z,38.35
2022-11-30T09:23:57.588Z,33.88
2022-11-30T09:30:02.757Z,44.65
2022-11-30T09:36:07.467Z,45.03
2022-11-30T09:42:18.754Z,41.08
2022-11-30T09:48:37.158Z,38.72
2022-11-30T09:54:42.921Z,43.13
2022-11-30T10:00:46.451Z,55.47
2022-11-30T10:06:55.374Z,46.65
2022-11-30T10:13:05.320Z,39.97
2022-11-30T10:19:15.107Z,37.28
2022-11-30T10:25:21.135Z,39.28
2022-11-30T10:31:30.605Z,41.58
2022-11-30T10:37:35.480Z,37.20
2022-11-30T10:43:41.505Z,52.03
2022-11-30T10:49:48.265Z,49.85
2022-11-30T10:55:57.055Z,56.72
2022-11-30T11:02:01.638Z,59.88
2022-11-30T11:08:19.658Z,58.92
2022-11-30T11:14:24.501Z,72.50
2022-11-30T11:20:32.559Z,70.63
2022-11-30T11:26:37.524Z,91.53
2022-11-30T11:32:41.037Z,100.97
2022-11-30T11:38:45.543Z,115.70
2022-11-30T11:44:52.644Z,110.43
2022-11-30T11:51:06.840Z,112.53
2022-11-30T11:57:13.412Z,102.90
2022-11-30T12:03:21.062Z,106.50
2022-11-30T12:09:26.480Z,79.15
2022-11-30T12:15:32.997Z,94.25
2022-11-30T12:21:44.977Z,69.60
2022-11-30T12:27:54.119Z,79.43
2022-11-30T12:34:04.470Z,56.97
2022-11-30T12:40:18.157Z,59.40
2022-11-30T12:46:24.763Z,60.42
2022-11-30T12:52:37.781Z,56.38
2022-11-30T12:58:47.336Z,56.83
2022-11-30T13:04:58.079Z,60.80
2022-11-30T13:11:03.970Z,47.88
2022-11-30T13:17:10.011Z,59.20
2022-11-30T13:23:15.589Z,58.55
2022-11-30T13:29:25.755Z,50.00
2022-11-30T13:35:46.952Z,45.75
2022-11-30T13:41:51.450Z,49.92
2022-11-30T13:47:55.764Z,41.38
2022-11-30T13:54:28.212Z,53.17
2022-11-30T14:00:48.498Z,44.13
2022-11-30T14:06:52.968Z,45.38
2022-11-30T14:13:05.406Z,49.10
2022-11-30T14:19:08.834Z,75.53
2022-11-30T14:25:14.658Z,68.28
2022-11-30T14:31:21.695Z,58.05
2022-11-30T14:37:26.584Z,70.70
2022-11-30T14:43:30.745Z,54.08
2022-11-30T14:49:35.629Z,53.30
2022-11-30T14:55:42.349Z,49.70
2022-11-30T15:01:46.445Z,51.08
2022-11-30T15:07:52.232Z,50.58
2022-11-30T15:13:57.111Z,50.30
2022-11-30T15:20:00.548Z,52.40
2022-11-30T15:26:08.253Z,56.47
2022-11-30T15:32:17.517Z,51.00
2022-11-30T15:38:22.640Z,57.58
2022-11-30T15:44:28.383Z,55.70
2022-11-30T15:50:37.659Z,52.45
2022-11-30T15:56:41.335Z,63.67
2022-11-30T16:02:46.243Z,63.72
2022-11-30T16:08:49.833Z,63.72
2022-11-30T16:14:53.500Z,62.28
2022-11-30T16:20:59.333Z,61.92
2022-11-30T16:27:03.206Z,60.00
2022-11-30T16:33:06.984Z,50.25
2022-11-30T16:39:13.381Z,56.70
2022-11-30T16:45:18.515Z,64.25
2022-11-30T16:51:23.552Z,58.10
2022-11-30T16:57:28.322Z,112.15
2022-11-30T17:03:33.381Z,85.90
2022-11-30T17:09:37.214Z,63.50
2022-11-30T17:15:42.031Z,61.30
2022-11-30T17:21:45.872Z,67.35
2022-11-30T17:27:49.683Z,78.90
2022-11-30T17:33:54.406Z,78.25
2022-11-30T17:39:58.411Z,89.20
2022-11-30T17:46:05.792Z,132.18
2022-11-30T17:52:10.804Z,100.22
2022-11-30T17:58:14.149Z,136.68
2022-11-30T18:04:17.546Z,132.40
2022-11-30T18:10:22.333Z,117.15
2022-11-30T18:16:26.604Z,130.02
2022-11-30T18:22:30.104Z,133.95
2022-11-30T18:28:35.028Z,130.00
2022-11-30T18:34:38.495Z,132.43
2022-11-30T18:40:41.923Z,130.07
2022-11-30T18:46:46.665Z,135.73
2022-11-30T18:52:50.226Z,114.88
2022-11-30T18:58:56.374Z,90.03
2022-11-30T19:05:01.417Z,103.05
2022-11-30T19:11:05.746Z,78.07
2022-11-30T19:17:09.288Z,79.53
2022-11-30T19:23:14.286Z,90.65
2022-11-30T19:29:17.741Z,74.43
2022-11-30T19:35:23.159Z,67.75
2022-11-30T19:41:28.405Z,61.33
2022-11-30T19:47:32.163Z,55.97
2022-11-30T19:53:35.955Z,56.97
2022-11-30T19:59:40.773Z,65.53
2022-11-30T20:05:49.252Z,61.53
2022-11-30T20:11:52.631Z,72.97
2022-11-30T20:17:57.386Z,56.60
2022-11-30T20:24:01.528Z,51.60
2022-11-30T20:30:05.905Z,64.93
2022-11-30T20:36:11.819Z,50.28
2022-11-30T20:42:15.282Z,47.72
2022-11-30T20:48:18.671Z,49.17
2022-11-30T20:54:23.542Z,50.60
2022-11-30T21:00:26.972Z,56.53
2022-11-30T21:06:30.556Z,52.67
2022-11-30T21:12:35.390Z,46.13
2022-11-30T21:18:39.364Z,45.70
2022-11-30T21:24:42.737Z,47.22
2022-11-30T21:30:47.561Z,41.58
2022-11-30T21:36:52.161Z,45.45
2022-11-30T21:42:55.554Z,50.17
2022-11-30T21:49:00.360Z,39.83
2022-11-30T21:55:03.890Z,45.03
2022-11-30T22:01:07.621Z,49.92
2022-11-30T22:07:14.378Z,54.38
2022-11-30T22:13:17.921Z,69.00
2022-11-30T22:19:21.374Z,97.40
2022-11-30T22:25:26.075Z,76.75
2022-11-30T22:31:30.627Z,93.25
2022-11-30T22:37:34.609Z,110.28
2022-11-30T22:43:39.469Z,110.00
2022-11-30T22:49:42.995Z,75.13
2022-11-30T22:55:48.323Z,63.58
2022-11-30T23:01:53.226Z,72.50
2022-11-30T23:07:56.904Z,41.30
2022-11-30T23:14:00.689Z,38.08
2022-11-30T23:20:05.543Z,36.00
2022-11-30T23:26:12.453Z,32.58
2022-11-30T23:32:16.445Z,33.20
2022-11-30T23:38:21.320Z,31.33
2022-11-30T23:44:25.120Z,38.65
2022-11-30T23:50:28.621Z,41.08
2022-11-30T23:56:33.572Z,37.95
